createdAt,value
2023-04-01T00:00:13.391Z,11.43
2023-04-01T00:01:13.413Z,11.48
2023-04-01T00:02:13.461Z,11.48
2023-04-01T00:03:13.542Z,11.42
2023-04-01T00:04:13.503Z,11.52
2023-04-01T00:05:13.519Z,11.45
2023-04-01T00:06:13.550Z,11.43
2023-04-01T00:07:13.573Z,11.46
2023-04-01T00:08:13.599Z,11.53
2023-04-01T00:09:13.624Z,11.52
2023-04-01T00:10:13.653Z,11.48
2023-04-01T00:11:13.674Z,11.53
2023-04-01T00:12:13.701Z,11.52
2023-04-01T00:13:13.749Z,11.51
2023-04-01T00:14:13.754Z,11.56
2023-04-01T00:15:13.786Z,11.51
2023-04-01T00:16:20.485Z,11.59
2023-04-01T00:17:13.833Z,11.57
2023-04-01T00:18:13.866Z,11.61
2023-04-01T00:19:13.883Z,11.66
2023-04-01T00:20:13.909Z,11.60
2023-04-01T00:21:13.936Z,11.67
2023-04-01T00:22:13.968Z,11.66
2023-04-01T00:23:13.989Z,11.67
2023-04-01T00:24:14.020Z,11.61
2023-04-01T00:25:14.045Z,11.59
2023-04-01T00:26:14.068Z,11.64
2023-04-01T00:27:14.092Z,11.68
2023-04-01T00:28:14.120Z,11.70
2023-04-01T00:29:14.166Z,11.68
2023-04-01T00:30:14.174Z,11.67
2023-04-01T00:31:14.254Z,11.70
2023-04-01T00:32:14.226Z,11.68
2023-04-01T00:33:14.253Z,11.66
2023-04-01T00:34:14.285Z,11.67
2023-04-01T00:35:14.311Z,11.68
2023-04-01T00:36:14.375Z,11.70
2023-04-01T00:37:14.366Z,11.70
2023-04-01T00:38:14.388Z,11.68
2023-04-01T00:39:14.410Z,11.70
2023-04-01T00:40:14.438Z,11.71
2023-04-01T00:41:14.463Z,11.71
2023-04-01T00:42:14.495Z,11.67
2023-04-01T00:43:14.515Z,11.67
2023-04-01T00:44:14.544Z,11.70
2023-04-01T00:45:14.591Z,11.64
2023-04-01T00:46:14.647Z,11.64
2023-04-01T00:47:14.704Z,11.64
2023-04-01T00:48:14.658Z,11.70
2023-04-01T00:49:14.675Z,11.75
2023-04-01T00:50:14.704Z,11.70
2023-04-01T00:51:14.728Z,11.64
2023-04-01T00:52:14.754Z,11.68
2023-04-01T00:53:14.781Z,11.67
2023-04-01T00:54:14.882Z,11.63
2023-04-01T00:55:14.923Z,11.57
2023-04-01T00:56:14.953Z,11.63
2023-04-01T00:57:14.909Z,11.67
2023-04-01T00:58:14.918Z,11.67
2023-04-01T00:59:14.986Z,11.61
2023-04-01T01:00:15.025Z,11.68
2023-04-01T01:01:15.044Z,11.63
2023-04-01T01:02:15.099Z,11.61
2023-04-01T01:03:15.171Z,11.61
2023-04-01T01:04:15.068Z,11.63
2023-04-01T01:05:15.093Z,11.61
2023-04-01T01:06:15.122Z,11.61
2023-04-01T01:07:15.148Z,11.64
2023-04-01T01:08:15.174Z,11.63
2023-04-01T01:09:15.214Z,11.61
2023-04-01T01:10:15.240Z,11.64
2023-04-01T01:11:15.247Z,11.68
2023-04-01T01:12:15.279Z,11.71
2023-04-01T01:13:15.304Z,11.63
2023-04-01T01:14:15.335Z,11.66
2023-04-01T01:15:15.354Z,11.63
2023-04-01T01:16:15.393Z,11.73
2023-04-01T01:17:15.429Z,11.76
2023-04-01T01:18:15.454Z,11.70
2023-04-01T01:19:15.460Z,11.71
2023-04-01T01:20:25.411Z,11.64
2023-04-01T01:21:15.513Z,11.82
2023-04-01T01:22:15.696Z,11.70
2023-04-01T01:23:15.565Z,11.70
2023-04-01T01:24:15.592Z,11.75
2023-04-01T01:25:15.617Z,11.78
2023-04-01T01:26:15.646Z,11.78
2023-04-01T01:27:15.670Z,11.70
2023-04-01T01:28:15.697Z,11.73
2023-04-01T01:29:15.734Z,11.75
2023-04-01T01:30:15.758Z,11.78
2023-04-01T01:31:15.900Z,11.81
2023-04-01T01:32:15.803Z,11.81
2023-04-01T01:33:15.855Z,11.76
2023-04-01T01:34:15.869Z,11.81
2023-04-01T01:35:15.882Z,11.79
2023-04-01T01:36:15.953Z,11.82
2023-04-01T01:37:15.932Z,11.78
2023-04-01T01:38:15.963Z,11.78
2023-04-01T01:39:15.986Z,11.70
2023-04-01T01:40:16.019Z,11.88
2023-04-01T01:41:16.041Z,11.73
2023-04-01T01:42:16.068Z,11.73
2023-04-01T01:43:16.095Z,11.78
2023-04-01T01:44:16.123Z,11.73
2023-04-01T01:45:16.154Z,11.76
2023-04-01T01:46:16.218Z,11.66
2023-04-01T01:47:16.195Z,11.68
2023-04-01T01:48:16.224Z,11.66
2023-04-01T01:49:16.273Z,11.63
2023-04-01T01:50:16.274Z,11.67
2023-04-01T01:51:16.302Z,11.67
2023-04-01T01:52:16.327Z,11.73
2023-04-01T01:53:16.355Z,11.68
2023-04-01T01:54:16.387Z,11.68
2023-04-01T01:55:16.408Z,11.61
2023-04-01T01:56:16.433Z,11.61
2023-04-01T01:57:16.504Z,11.66
2023-04-01T01:58:16.491Z,11.59
2023-04-01T01:59:16.527Z,11.57
2023-04-01T02:00:16.560Z,11.45
2023-04-01T02:01:16.604Z,11.42
2023-04-01T02:02:16.592Z,11.48
2023-04-01T02:03:16.621Z,11.43
2023-04-01T02:04:16.791Z,11.41
2023-04-01T02:05:16.695Z,11.43
2023-04-01T02:06:16.735Z,11.41
2023-04-01T02:07:16.724Z,11.41
2023-04-01T02:08:16.749Z,11.39
2023-04-01T02:09:16.777Z,11.33
2023-04-01T02:10:16.807Z,11.45
2023-04-01T02:11:16.830Z,11.30
2023-04-01T02:12:16.853Z,11.31
2023-04-01T02:13:16.882Z,11.21
2023-04-01T02:14:16.915Z,11.16
2023-04-01T02:15:16.937Z,11.12
2023-04-01T02:16:16.977Z,11.03
2023-04-01T02:17:17.003Z,11.02
2023-04-01T02:18:17.011Z,11.00
2023-04-01T02:19:17.040Z,10.91
2023-04-01T02:20:17.062Z,10.92
2023-04-01T02:21:17.117Z,10.88
2023-04-01T02:22:17.116Z,10.80
2023-04-01T02:23:17.143Z,10.77
2023-04-01T02:24:17.169Z,10.67
2023-04-01T02:25:17.203Z,10.70
2023-04-01T02:26:17.224Z,10.67
2023-04-01T02:27:17.248Z,10.66
2023-04-01T02:28:17.270Z,10.69
2023-04-01T02:29:17.300Z,10.67
2023-04-01T02:30:17.324Z,10.66
2023-04-01T02:31:17.371Z,10.57
2023-04-01T02:32:17.381Z,10.55
2023-04-01T02:33:17.402Z,10.54
2023-04-01T02:34:17.448Z,10.52
2023-04-01T02:35:17.454Z,10.54
2023-04-01T02:36:17.553Z,10.51
2023-04-01T02:37:17.525Z,10.51
2023-04-01T02:38:17.532Z,10.38
2023-04-01T02:39:17.556Z,10.39
2023-04-01T02:40:17.590Z,10.36
2023-04-01T02:41:17.614Z,10.35
2023-04-01T02:42:17.633Z,10.38
2023-04-01T02:43:17.660Z,10.33
2023-04-01T02:44:17.688Z,10.31
2023-04-01T02:45:17.720Z,10.31
2023-04-01T02:46:17.769Z,10.32
2023-04-01T02:47:17.765Z,10.35
2023-04-01T02:48:17.789Z,10.32
2023-04-01T02:49:17.819Z,10.38
2023-04-01T02:50:17.842Z,10.26
2023-04-01T02:51:18.545Z,10.28
2023-04-01T02:52:17.896Z,10.31
2023-04-01T02:53:17.946Z,10.17
2023-04-01T02:54:17.946Z,10.21
2023-04-01T02:55:17.978Z,10.25
2023-04-01T02:56:18.000Z,10.17
2023-04-01T02:57:18.101Z,10.18
2023-04-01T02:58:18.055Z,10.25
2023-04-01T02:59:18.083Z,10.14
2023-04-01T03:00:18.101Z,10.18
2023-04-01T03:01:18.240Z,10.14
2023-04-01T03:02:18.166Z,10.13
2023-04-01T03:03:18.227Z,10.14
2023-04-01T03:04:18.217Z,10.13
2023-04-01T03:05:18.240Z,10.15
2023-04-01T03:06:18.293Z,10.07
2023-04-01T03:07:18.287Z,10.11
2023-04-01T03:08:18.306Z,10.11
2023-04-01T03:09:18.357Z,10.11
2023-04-01T03:10:18.359Z,10.10
2023-04-01T03:11:18.386Z,10.17
2023-04-01T03:12:18.411Z,10.15
2023-04-01T03:13:18.438Z,10.17
2023-04-01T03:14:18.464Z,10.11
2023-04-01T03:15:18.491Z,10.14
2023-04-01T03:16:18.569Z,10.11
2023-04-01T03:17:18.537Z,10.10
2023-04-01T03:18:18.564Z,10.20
2023-04-01T03:19:18.589Z,10.14
2023-04-01T03:20:18.614Z,10.10
2023-04-01T03:21:18.640Z,10.13
2023-04-01T03:22:18.665Z,10.07
2023-04-01T03:23:18.689Z,10.08
2023-04-01T03:24:18.718Z,10.08
2023-04-01T03:25:18.770Z,10.10
2023-04-01T03:26:18.764Z,10.03
2023-04-01T03:27:18.791Z,10.11
2023-04-01T03:28:18.817Z,10.14
2023-04-01T03:29:18.853Z,10.20
2023-04-01T03:30:18.915Z,10.14
2023-04-01T03:31:20.414Z,10.03
2023-04-01T03:32:18.916Z,10.15
2023-04-01T03:33:18.944Z,10.11
2023-04-01T03:34:18.969Z,10.15
2023-04-01T03:35:18.995Z,10.10
2023-04-01T03:36:19.049Z,10.13
2023-04-01T03:37:19.056Z,10.21
2023-04-01T03:38:19.072Z,10.10
2023-04-01T03:39:19.101Z,10.07
2023-04-01T03:40:19.128Z,10.13
2023-04-01T03:41:19.172Z,10.10
2023-04-01T03:42:19.177Z,10.13
2023-04-01T03:43:19.198Z,10.15
2023-04-01T03:44:19.222Z,10.17
2023-04-01T03:45:19.257Z,10.13
2023-04-01T03:46:19.396Z,10.13
2023-04-01T03:47:19.299Z,10.15
2023-04-01T03:48:19.331Z,10.10
2023-04-01T03:49:19.358Z,10.11
2023-04-01T03:50:19.377Z,10.13
2023-04-01T03:51:19.403Z,10.10
2023-04-01T03:52:19.481Z,10.11
2023-04-01T03:53:19.461Z,10.07
2023-04-01T03:54:19.481Z,10.08
2023-04-01T03:55:19.513Z,10.08
2023-04-01T03:56:19.532Z,10.10
2023-04-01T03:57:19.631Z,10.08
2023-04-01T03:58:19.585Z,10.15
2023-04-01T03:59:19.611Z,10.11
2023-04-01T04:00:19.635Z,10.14
2023-04-01T04:01:19.665Z,10.10
2023-04-01T04:02:19.741Z,10.11
2023-04-01T04:03:19.807Z,10.05
2023-04-01T04:04:19.905Z,10.11
2023-04-01T04:05:19.766Z,10.13
2023-04-01T04:06:19.819Z,10.13
2023-04-01T04:07:19.822Z,9.99
2023-04-01T04:08:19.841Z,10.10
2023-04-01T04:09:19.870Z,10.03
2023-04-01T04:10:19.897Z,10.08
2023-04-01T04:11:19.928Z,10.02
2023-04-01T04:12:19.945Z,10.08
2023-04-01T04:13:19.992Z,10.03
2023-04-01T04:14:19.999Z,10.07
2023-04-01T04:15:20.031Z,10.05
2023-04-01T04:16:20.090Z,10.10
2023-04-01T04:17:20.076Z,10.11
2023-04-01T04:18:20.106Z,10.07
2023-04-01T04:19:20.131Z,10.08
2023-04-01T04:20:20.154Z,10.08
2023-04-01T04:21:20.187Z,10.03
2023-04-01T04:22:20.207Z,9.99
2023-04-01T04:23:20.232Z,10.03
2023-04-01T04:24:20.258Z,10.14
2023-04-01T04:25:20.293Z,10.05
2023-04-01T04:26:20.313Z,10.10
2023-04-01T04:27:20.338Z,10.10
2023-04-01T04:28:20.361Z,10.10
2023-04-01T04:29:20.411Z,10.07
2023-04-01T04:30:20.411Z,10.13
2023-04-01T04:31:20.461Z,10.10
2023-04-01T04:32:20.461Z,10.11
2023-04-01T04:33:20.491Z,10.07
2023-04-01T04:34:20.513Z,10.03
2023-04-01T04:35:20.549Z,10.17
2023-04-01T04:36:20.614Z,10.18
2023-04-01T04:37:20.593Z,10.07
2023-04-01T04:38:20.620Z,10.10
2023-04-01T04:39:20.645Z,10.14
2023-04-01T04:40:20.669Z,10.14
2023-04-01T04:41:20.698Z,10.20
2023-04-01T04:42:20.720Z,10.15
2023-04-01T04:43:20.754Z,10.20
2023-04-01T04:44:20.774Z,10.15
2023-04-01T04:45:20.822Z,10.17
2023-04-01T04:46:20.933Z,10.20
2023-04-01T04:47:20.980Z,10.17
2023-04-01T04:48:20.881Z,10.18
2023-04-01T04:49:20.904Z,10.14
2023-04-01T04:50:20.929Z,10.20
2023-04-01T04:51:20.957Z,10.14
2023-04-01T04:52:20.976Z,10.20
2023-04-01T04:53:21.005Z,10.10
2023-04-01T04:54:21.028Z,10.18
2023-04-01T04:55:21.055Z,10.10
2023-04-01T04:56:21.089Z,10.17
2023-04-01T04:57:21.144Z,10.20
2023-04-01T04:58:21.138Z,10.20
2023-04-01T04:59:21.192Z,10.18
2023-04-01T05:00:21.194Z,10.18
2023-04-01T05:01:21.298Z,10.18
2023-04-01T05:02:21.287Z,10.20
2023-04-01T05:03:21.431Z,10.18
2023-04-01T05:04:21.296Z,10.20
2023-04-01T05:05:21.318Z,10.23
2023-04-01T05:06:23.494Z,10.20
2023-04-01T05:07:21.376Z,10.18
2023-04-01T05:08:21.392Z,10.10
2023-04-01T05:09:21.415Z,10.17
2023-04-01T05:10:21.441Z,10.13
2023-04-01T05:11:21.479Z,10.14
2023-04-01T05:12:21.511Z,10.18
2023-04-01T05:13:21.522Z,10.15
2023-04-01T05:14:21.545Z,10.11
2023-04-01T05:15:21.600Z,10.07
2023-04-01T05:16:21.625Z,10.18
2023-04-01T05:17:21.662Z,10.15
2023-04-01T05:18:21.650Z,10.10
2023-04-01T05:19:21.677Z,10.20
2023-04-01T05:20:21.698Z,10.14
2023-04-01T05:21:21.726Z,10.17
2023-04-01T05:22:21.755Z,10.11
2023-04-01T05:23:21.778Z,10.15
2023-04-01T05:24:21.804Z,10.10
2023-04-01T05:25:21.835Z,10.11
2023-04-01T05:26:21.854Z,10.15
2023-04-01T05:27:21.880Z,10.15
2023-04-01T05:28:21.904Z,10.10
2023-04-01T05:29:21.934Z,10.15
2023-04-01T05:30:21.958Z,10.15
2023-04-01T05:31:22.010Z,10.14
2023-04-01T05:32:22.051Z,10.11
2023-04-01T05:33:22.054Z,10.17
2023-04-01T05:34:22.060Z,10.15
2023-04-01T05:35:22.123Z,10.21
2023-04-01T05:36:22.113Z,10.26
2023-04-01T05:37:22.141Z,10.20
2023-04-01T05:38:22.168Z,10.21
2023-04-01T05:39:22.193Z,10.17
2023-04-01T05:40:22.225Z,10.18
2023-04-01T05:41:22.244Z,10.23
2023-04-01T05:42:22.270Z,10.15
2023-04-01T05:43:22.296Z,10.21
2023-04-01T05:44:22.320Z,10.21
2023-04-01T05:45:22.351Z,10.18
2023-04-01T05:46:22.390Z,10.20
2023-04-01T05:47:22.439Z,10.17
2023-04-01T05:48:22.430Z,10.23
2023-04-01T05:49:22.473Z,10.20
2023-04-01T05:50:22.482Z,10.18
2023-04-01T05:51:22.506Z,10.17
2023-04-01T05:52:22.526Z,10.23
2023-04-01T05:53:22.554Z,10.21
2023-04-01T05:54:22.580Z,10.29
2023-04-01T05:55:22.610Z,10.32
2023-04-01T05:56:22.630Z,10.31
2023-04-01T05:57:22.684Z,10.23
2023-04-01T05:58:22.684Z,10.23
2023-04-01T05:59:22.712Z,10.28
2023-04-01T06:00:22.743Z,10.26
2023-04-01T06:01:22.764Z,10.18
2023-04-01T06:02:22.828Z,10.38
2023-04-01T06:03:22.958Z,10.32
2023-04-01T06:04:22.860Z,10.35
2023-04-01T06:05:22.891Z,10.28
2023-04-01T06:06:22.886Z,10.35
2023-04-01T06:07:22.912Z,10.28
2023-04-01T06:08:22.938Z,10.36
2023-04-01T06:09:22.965Z,10.33
2023-04-01T06:10:22.989Z,10.35
2023-04-01T06:11:23.017Z,10.38
2023-04-01T06:12:23.190Z,10.35
2023-04-01T06:13:23.068Z,10.39
2023-04-01T06:14:23.093Z,10.42
2023-04-01T06:15:23.117Z,10.31
2023-04-01T06:16:23.203Z,10.36
2023-04-01T06:17:23.245Z,10.39
2023-04-01T06:18:23.203Z,10.38
2023-04-01T06:19:23.237Z,10.69
2023-04-01T06:20:23.255Z,10.58
2023-04-01T06:21:23.288Z,10.59
2023-04-01T06:22:23.301Z,10.55
2023-04-01T06:23:23.325Z,10.41
2023-04-01T06:24:23.349Z,10.39
2023-04-01T06:25:23.377Z,10.44
2023-04-01T06:26:23.408Z,10.39
2023-04-01T06:27:23.427Z,10.44
2023-04-01T06:28:23.470Z,10.41
2023-04-01T06:29:23.482Z,10.38
2023-04-01T06:30:23.511Z,10.41
2023-04-01T06:31:23.622Z,10.51
2023-04-01T06:32:23.626Z,10.52
2023-04-01T06:33:23.584Z,10.59
2023-04-01T06:34:23.658Z,10.59
2023-04-01T06:35:23.640Z,10.66
2023-04-01T06:36:23.750Z,10.65
2023-04-01T06:37:23.716Z,10.70
2023-04-01T06:38:23.717Z,10.69
2023-04-01T06:39:23.740Z,10.70
2023-04-01T06:40:23.768Z,10.67
2023-04-01T06:41:23.794Z,10.66
2023-04-01T06:42:23.824Z,10.72
2023-04-01T06:43:23.848Z,10.67
2023-04-01T06:44:23.870Z,10.70
2023-04-01T06:45:23.898Z,10.75
2023-04-01T06:46:24.056Z,10.69
2023-04-01T06:47:23.951Z,10.67
2023-04-01T06:48:23.980Z,10.67
2023-04-01T06:49:24.001Z,10.70
2023-04-01T06:50:24.428Z,10.73
2023-04-01T06:51:24.053Z,10.66
2023-04-01T06:52:24.084Z,10.67
2023-04-01T06:53:24.125Z,10.70
2023-04-01T06:54:24.139Z,10.77
2023-04-01T06:55:24.158Z,10.75
2023-04-01T06:56:24.181Z,10.80
2023-04-01T06:57:24.255Z,10.80
2023-04-01T06:58:24.238Z,10.80
2023-04-01T06:59:24.271Z,10.79
2023-04-01T07:00:24.288Z,10.84
2023-04-01T07:01:24.333Z,10.88
2023-04-01T07:02:24.373Z,10.87
2023-04-01T07:03:24.374Z,10.90
2023-04-01T07:04:24.441Z,10.95
2023-04-01T07:05:24.417Z,10.91
2023-04-01T07:06:24.443Z,10.88
2023-04-01T07:07:24.674Z,10.91
2023-04-01T07:08:24.495Z,10.92
2023-04-01T07:09:24.546Z,10.85
2023-04-01T07:10:24.703Z,10.87
2023-04-01T07:11:24.571Z,10.88
2023-04-01T07:12:24.601Z,10.88
2023-04-01T07:13:24.625Z,10.88
2023-04-01T07:14:24.650Z,10.88
2023-04-01T07:15:24.674Z,10.90
2023-04-01T07:16:24.734Z,10.87
2023-04-01T07:17:24.790Z,10.87
2023-04-01T07:18:24.766Z,10.76
2023-04-01T07:19:24.779Z,10.85
2023-04-01T07:20:24.817Z,10.75
2023-04-01T07:21:24.833Z,10.80
2023-04-01T07:22:24.873Z,10.83
2023-04-01T07:23:24.885Z,10.77
2023-04-01T07:24:24.911Z,10.77
2023-04-01T07:25:24.954Z,10.70
2023-04-01T07:26:24.961Z,10.65
2023-04-01T07:27:24.992Z,10.84
2023-04-01T07:28:25.022Z,10.79
2023-04-01T07:29:25.041Z,10.77
2023-04-01T07:30:25.074Z,10.80
2023-04-01T07:31:25.115Z,10.77
2023-04-01T07:32:25.139Z,10.83
2023-04-01T07:33:25.146Z,10.79
2023-04-01T07:34:25.174Z,10.84
2023-04-01T07:35:25.200Z,10.76
2023-04-01T07:36:25.248Z,10.77
2023-04-01T07:37:25.250Z,10.84
2023-04-01T07:38:25.358Z,10.79
2023-04-01T07:39:25.310Z,10.83
2023-04-01T07:40:25.369Z,10.83
2023-04-01T07:41:25.383Z,10.83
2023-04-01T07:42:25.385Z,10.87
2023-04-01T07:43:25.408Z,10.85
2023-04-01T07:44:25.438Z,10.85
2023-04-01T07:45:25.465Z,10.84
2023-04-01T07:46:25.545Z,10.84
2023-04-01T07:47:25.580Z,10.77
2023-04-01T07:48:25.573Z,10.79
2023-04-01T07:49:25.568Z,10.73
2023-04-01T07:50:25.600Z,10.77
2023-04-01T07:51:25.620Z,10.77
2023-04-01T07:52:25.648Z,10.79
2023-04-01T07:53:25.671Z,10.72
2023-04-01T07:54:25.700Z,10.76
2023-04-01T07:55:25.727Z,10.90
2023-04-01T07:56:25.752Z,10.90
2023-04-01T07:57:25.860Z,10.87
2023-04-01T07:58:25.815Z,10.84
2023-04-01T07:59:25.830Z,10.77
2023-04-01T08:00:25.858Z,10.90
2023-04-01T08:01:25.883Z,10.77
2023-04-01T08:02:25.960Z,10.92
2023-04-01T08:03:26.033Z,10.88
2023-04-01T08:04:25.987Z,11.00
2023-04-01T08:05:25.990Z,10.94
2023-04-01T08:06:26.013Z,11.05
2023-04-01T08:07:26.038Z,11.00
2023-04-01T08:08:26.073Z,11.08
2023-04-01T08:09:26.090Z,11.03
2023-04-01T08:10:26.120Z,10.97
2023-04-01T08:11:26.144Z,10.94
2023-04-01T08:12:26.172Z,10.97
2023-04-01T08:13:26.228Z,10.91
2023-04-01T08:14:26.237Z,10.94
2023-04-01T08:15:26.243Z,10.97
2023-04-01T08:16:26.337Z,11.02
2023-04-01T08:17:26.309Z,11.02
2023-04-01T08:18:26.321Z,11.08
2023-04-01T08:19:26.346Z,11.06
2023-04-01T08:20:26.369Z,11.06
2023-04-01T08:21:26.401Z,11.05
2023-04-01T08:22:26.426Z,11.06
2023-04-01T08:23:26.448Z,11.00
2023-04-01T08:24:29.769Z,11.06
2023-04-01T08:25:26.508Z,11.05
2023-04-01T08:26:26.528Z,10.94
2023-04-01T08:27:26.554Z,10.94
2023-04-01T08:28:26.583Z,11.08
2023-04-01T08:29:26.625Z,11.08
2023-04-01T08:30:26.649Z,11.08
2023-04-01T08:31:26.666Z,11.09
2023-04-01T08:32:26.783Z,10.98
2023-04-01T08:33:26.709Z,10.95
2023-04-01T08:34:26.738Z,11.00
2023-04-01T08:35:26.784Z,10.98
2023-04-01T08:36:26.840Z,11.05
2023-04-01T08:37:26.813Z,11.08
2023-04-01T08:38:26.848Z,10.92
2023-04-01T08:39:26.864Z,11.00
2023-04-01T08:40:26.893Z,11.03
2023-04-01T08:41:26.920Z,11.09
2023-04-01T08:42:26.962Z,11.15
2023-04-01T08:43:26.973Z,11.16
2023-04-01T08:44:26.998Z,11.10
2023-04-01T08:45:27.085Z,11.18
2023-04-01T08:46:27.167Z,11.16
2023-04-01T08:47:27.096Z,11.15
2023-04-01T08:48:27.101Z,11.08
2023-04-01T08:49:27.128Z,11.08
2023-04-01T08:50:27.164Z,11.05
2023-04-01T08:51:27.183Z,11.00
2023-04-01T08:52:27.209Z,11.08
2023-04-01T08:53:27.284Z,11.06
2023-04-01T08:54:27.263Z,11.00
2023-04-01T08:55:27.286Z,11.15
2023-04-01T08:56:27.315Z,11.10
2023-04-01T08:57:27.413Z,11.27
2023-04-01T08:58:27.372Z,11.26
2023-04-01T08:59:27.392Z,11.24
2023-04-01T09:00:27.433Z,11.21
2023-04-01T09:01:27.466Z,11.24
2023-04-01T09:02:27.583Z,11.31
2023-04-01T09:03:27.578Z,11.35
2023-04-01T09:04:27.618Z,11.35
2023-04-01T09:05:27.549Z,11.26
2023-04-01T09:06:27.577Z,11.35
2023-04-01T09:07:27.602Z,11.27
2023-04-01T09:08:27.630Z,11.26
2023-04-01T09:09:27.663Z,11.35
2023-04-01T09:10:27.682Z,11.28
2023-04-01T09:11:27.721Z,11.39
2023-04-01T09:12:27.736Z,11.41
2023-04-01T09:13:27.762Z,11.41
2023-04-01T09:14:27.791Z,11.26
2023-04-01T09:15:27.814Z,11.35
2023-04-01T09:16:27.916Z,11.35
2023-04-01T09:17:27.908Z,11.27
2023-04-01T09:18:27.894Z,11.35
2023-04-01T09:19:27.922Z,11.43
2023-04-01T09:20:27.949Z,11.38
2023-04-01T09:21:27.975Z,11.42
2023-04-01T09:22:28.002Z,11.45
2023-04-01T09:23:28.029Z,11.31
2023-04-01T09:24:28.058Z,11.42
2023-04-01T09:25:28.083Z,11.56
2023-04-01T09:26:28.111Z,11.45
2023-04-01T09:27:28.153Z,11.51
2023-04-01T09:28:28.171Z,11.38
2023-04-01T09:29:28.191Z,11.43
2023-04-01T09:30:28.221Z,11.46
2023-04-01T09:31:28.313Z,11.45
2023-04-01T09:32:28.296Z,11.43
2023-04-01T09:33:28.318Z,11.41
2023-04-01T09:34:28.334Z,11.30
2023-04-01T09:35:28.353Z,11.35
2023-04-01T09:36:28.379Z,11.41
2023-04-01T09:37:28.408Z,11.38
2023-04-01T09:38:28.435Z,11.38
2023-04-01T09:39:28.457Z,11.41
2023-04-01T09:40:28.488Z,11.42
2023-04-01T09:41:28.513Z,11.34
2023-04-01T09:42:28.539Z,11.41
2023-04-01T09:43:28.566Z,11.42
2023-04-01T09:44:28.597Z,11.42
2023-04-01T09:45:28.621Z,11.41
2023-04-01T09:46:28.704Z,11.42
2023-04-01T09:47:28.707Z,11.53
2023-04-01T09:48:28.732Z,11.35
2023-04-01T09:49:28.746Z,11.43
2023-04-01T09:50:28.755Z,11.41
2023-04-01T09:51:28.782Z,11.45
2023-04-01T09:52:28.806Z,11.42
2023-04-01T09:53:28.834Z,11.41
2023-04-01T09:54:28.860Z,11.39
2023-04-01T09:55:28.887Z,11.39
2023-04-01T09:56:28.911Z,11.43
2023-04-01T09:57:29.034Z,11.42
2023-04-01T09:58:29.041Z,11.35
2023-04-01T09:59:28.996Z,11.43
2023-04-01T10:00:29.021Z,11.41
2023-04-01T10:01:29.136Z,11.34
2023-04-01T10:02:29.107Z,11.45
2023-04-01T10:03:29.875Z,11.48
2023-04-01T10:04:29.125Z,11.49
2023-04-01T10:05:29.241Z,11.41
2023-04-01T10:06:29.176Z,11.41
2023-04-01T10:07:29.200Z,11.41
2023-04-01T10:08:29.234Z,11.57
2023-04-01T10:09:29.256Z,11.51
2023-04-01T10:10:29.300Z,11.52
2023-04-01T10:11:29.308Z,11.49
2023-04-01T10:12:29.338Z,11.45
2023-04-01T10:13:29.362Z,11.38
2023-04-01T10:14:29.398Z,11.43
2023-04-01T10:15:29.415Z,11.42
2023-04-01T10:16:29.475Z,11.43
2023-04-01T10:17:29.500Z,11.39
2023-04-01T10:18:29.501Z,11.46
2023-04-01T10:19:29.520Z,11.41
2023-04-01T10:20:29.560Z,11.51
2023-04-01T10:21:29.600Z,11.52
2023-04-01T10:22:29.638Z,11.59
2023-04-01T10:23:29.649Z,11.64
2023-04-01T10:24:29.661Z,11.68
2023-04-01T10:25:29.681Z,11.63
2023-04-01T10:26:29.709Z,11.61
2023-04-01T10:27:29.732Z,11.68
2023-04-01T10:28:29.762Z,11.73
2023-04-01T10:29:29.785Z,11.64
2023-04-01T10:30:29.814Z,11.66
2023-04-01T10:31:29.866Z,11.70
2023-04-01T10:32:29.896Z,11.76
2023-04-01T10:33:29.896Z,11.81
2023-04-01T10:34:29.920Z,11.86
2023-04-01T10:35:29.946Z,11.88
2023-04-01T10:36:30.001Z,11.91
2023-04-01T10:37:30.023Z,11.89
2023-04-01T10:38:30.068Z,11.81
2023-04-01T10:39:30.076Z,11.95
2023-04-01T10:40:30.149Z,11.82
2023-04-01T10:41:30.109Z,11.89
2023-04-01T10:42:30.134Z,11.89
2023-04-01T10:43:30.163Z,11.89
2023-04-01T10:44:30.193Z,11.97
2023-04-01T10:45:30.327Z,11.88
2023-04-01T10:46:30.263Z,11.95
2023-04-01T10:47:30.331Z,11.89
2023-04-01T10:48:30.299Z,11.88
2023-04-01T10:49:30.324Z,11.89
2023-04-01T10:50:30.350Z,11.94
2023-04-01T10:51:30.380Z,12.04
2023-04-01T10:52:30.405Z,12.03
2023-04-01T10:53:30.452Z,11.95
2023-04-01T10:54:30.504Z,12.07
2023-04-01T10:55:30.604Z,12.20
2023-04-01T10:56:30.520Z,12.23
2023-04-01T10:57:30.766Z,12.20
2023-04-01T10:58:30.568Z,12.31
2023-04-01T10:59:30.595Z,12.28
2023-04-01T11:00:30.621Z,12.20
2023-04-01T11:01:30.720Z,12.19
2023-04-01T11:02:30.764Z,12.22
2023-04-01T11:03:30.783Z,12.28
2023-04-01T11:04:30.731Z,12.18
2023-04-01T11:05:30.858Z,12.41
2023-04-01T11:06:30.786Z,12.33
2023-04-01T11:07:30.816Z,12.41
2023-04-01T11:08:30.841Z,12.40
2023-04-01T11:09:30.894Z,12.48
2023-04-01T11:10:30.895Z,12.45
2023-04-01T11:11:30.925Z,12.51
2023-04-01T11:12:30.952Z,12.59
2023-04-01T11:13:30.979Z,12.59
2023-04-01T11:14:31.008Z,12.63
2023-04-01T11:15:31.193Z,12.69
2023-04-01T11:16:31.205Z,12.58
2023-04-01T11:17:31.123Z,12.65
2023-04-01T11:18:31.118Z,12.61
2023-04-01T11:19:31.143Z,12.62
2023-04-01T11:20:31.184Z,12.71
2023-04-01T11:21:31.200Z,12.71
2023-04-01T11:22:31.246Z,12.86
2023-04-01T11:23:31.279Z,12.78
2023-04-01T11:24:31.288Z,12.74
2023-04-01T11:25:31.631Z,12.76
2023-04-01T11:26:31.339Z,12.81
2023-04-01T11:27:31.377Z,12.78
2023-04-01T11:28:31.395Z,12.66
2023-04-01T11:29:31.424Z,12.66
2023-04-01T11:30:31.458Z,12.69
2023-04-01T11:31:31.672Z,12.80
2023-04-01T11:32:31.527Z,12.73
2023-04-01T11:33:31.535Z,12.70
2023-04-01T11:34:31.561Z,12.69
2023-04-01T11:35:31.946Z,12.69
2023-04-01T11:36:31.665Z,12.66
2023-04-01T11:37:31.650Z,12.78
2023-04-01T11:38:31.673Z,12.70
2023-04-01T11:39:31.700Z,12.83
2023-04-01T11:40:31.728Z,12.86
2023-04-01T11:41:31.788Z,12.92
2023-04-01T11:42:32.036Z,12.92
2023-04-01T11:43:33.845Z,12.88
2023-04-01T11:44:31.839Z,12.89
2023-04-01T11:45:32.193Z,12.91
2023-04-01T11:46:31.933Z,12.92
2023-04-01T11:47:32.118Z,12.84
2023-04-01T11:48:31.950Z,12.74
2023-04-01T11:49:31.981Z,12.73
2023-04-01T11:50:32.006Z,12.61
2023-04-01T11:51:32.043Z,12.63
2023-04-01T11:52:32.061Z,12.73
2023-04-01T11:53:32.089Z,12.66
2023-04-01T11:54:32.125Z,12.80
2023-04-01T11:55:32.412Z,12.78
2023-04-01T11:56:32.173Z,12.81
2023-04-01T11:57:32.470Z,12.91
2023-04-01T11:58:32.231Z,12.94
2023-04-01T11:59:32.269Z,12.96
2023-04-01T12:00:32.285Z,12.98
2023-04-01T12:01:32.313Z,12.99
2023-04-01T12:02:32.446Z,12.88
2023-04-01T12:03:32.541Z,12.86
2023-04-01T12:04:32.425Z,12.77
2023-04-01T12:05:32.695Z,12.73
2023-04-01T12:06:32.452Z,12.77
2023-04-01T12:07:32.479Z,12.94
2023-04-01T12:08:32.526Z,12.86
2023-04-01T12:09:32.537Z,12.74
2023-04-01T12:10:32.566Z,12.86
2023-04-01T12:11:32.597Z,12.78
2023-04-01T12:12:32.618Z,12.89
2023-04-01T12:13:32.670Z,12.78
2023-04-01T12:14:32.675Z,12.74
2023-04-01T12:15:32.869Z,12.88
2023-04-01T12:16:32.851Z,12.78
2023-04-01T12:17:32.786Z,12.73
2023-04-01T12:18:32.791Z,12.76
2023-04-01T12:19:32.816Z,12.74
2023-04-01T12:20:32.844Z,12.91
2023-04-01T12:21:32.870Z,13.02
2023-04-01T12:22:33.954Z,12.95
2023-04-01T12:23:32.927Z,13.01
2023-04-01T12:24:32.953Z,12.96
2023-04-01T12:25:33.217Z,13.06
2023-04-01T12:26:33.018Z,13.07
2023-04-01T12:27:33.035Z,13.07
2023-04-01T12:28:33.076Z,13.19
2023-04-01T12:29:33.113Z,13.17
2023-04-01T12:30:33.121Z,13.11
2023-04-01T12:31:33.204Z,13.25
2023-04-01T12:32:33.214Z,13.24
2023-04-01T12:33:33.217Z,13.10
2023-04-01T12:34:33.238Z,13.14
2023-04-01T12:35:33.502Z,13.10
2023-04-01T12:36:33.293Z,13.17
2023-04-01T12:37:33.320Z,13.20
2023-04-01T12:38:33.345Z,13.27
2023-04-01T12:39:33.388Z,13.29
2023-04-01T12:40:33.628Z,13.28
2023-04-01T12:41:33.429Z,13.35
2023-04-01T12:42:33.455Z,13.39
2023-04-01T12:43:33.497Z,13.40
2023-04-01T12:44:33.511Z,13.47
2023-04-01T12:45:33.720Z,13.37
2023-04-01T12:46:33.640Z,13.37
2023-04-01T12:47:33.688Z,13.42
2023-04-01T12:48:33.627Z,13.39
2023-04-01T12:49:33.654Z,13.24
2023-04-01T12:50:33.683Z,13.36
2023-04-01T12:51:33.708Z,13.37
2023-04-01T12:52:33.747Z,13.40